Time;durP1;ratioP1;P1;durP2;ratioP2;P2;SDS_P1;SDS_P2;PMS_P1;PMS_P2;Temp;Humidity;BMP_temperature;BMP_pressure;BME280_temperature;BME280_humidity;BME280_pressure;Samples;Min_cycle;Max_cycle;Signal;HPM_P1;HPM_P2
2021/09/27 00:00:53;;;;;;;21.17;16.00;;;16.70;99.90;;;;;;5001556;28;37706;-80
2021/09/27 00:03:19;;;;;;;23.38;16.92;;;16.60;99.90;;;;;;5001180;28;39094;-80
2021/09/27 00:05:46;;;;;;;22.38;16.88;;;16.60;99.90;;;;;;4996697;28;39728;-80
2021/09/27 00:08:13;;;;;;;23.10;16.75;;;16.60;99.90;;;;;;4995574;28;37688;-79
2021/09/27 00:10:43;;;;;;;24.13;18.33;;;16.60;99.90;;;;;;5003047;28;38469;-80
2021/09/27 00:13:11;;;;;;;22.30;17.77;;;16.60;99.90;;;;;;5003402;28;37454;-80
2021/09/27 00:15:43;;;;;;;25.52;19.58;;;16.50;99.90;;;;;;4999660;28;40779;-80
2021/09/27 00:18:09;;;;;;;22.27;17.93;;;16.40;99.90;;;;;;5008934;28;38445;-79
2021/09/27 00:20:40;;;;;;;24.38;18.58;;;16.40;99.90;;;;;;5010589;28;38763;-79
2021/09/27 00:23:07;;;;;;;28.60;18.08;;;16.40;99.90;;;;;;5005332;28;38630;-79
2021/09/27 00:25:33;;;;;;;28.45;20.63;;;16.40;99.90;;;;;;5002731;28;40533;-79
2021/09/27 00:27:59;;;;;;;26.02;19.85;;;16.40;99.90;;;;;;5006251;28;38241;-80
2021/09/27 00:30:25;;;;;;;24.00;18.27;;;16.40;99.90;;;;;;5002081;28;38754;-79
2021/09/27 00:32:52;;;;;;;22.98;17.85;;;16.40;99.90;;;;;;5026149;28;37558;-79
2021/09/27 00:35:27;;;;;;;22.17;19.27;;;16.40;99.90;;;;;;5004412;28;39463;-80
2021/09/27 00:37:53;;;;;;;24.92;19.23;;;16.40;99.90;;;;;;4999535;28;38736;-79
2021/09/27 00:40:24;;;;;;;29.80;20.95;;;16.40;99.90;;;;;;4998787;28;38753;-79
2021/09/27 00:42:51;;;;;;;29.13;20.88;;;16.40;99.90;;;;;;4999889;28;37379;-80
2021/09/27 00:45:20;;;;;;;33.58;23.38;;;16.30;99.90;;;;;;5002984;28;39656;-79
2021/09/27 00:47:47;;;;;;;30.02;22.73;;;16.30;99.90;;;;;;5003505;28;39380;-79
2021/09/27 00:50:17;;;;;;;33.85;25.70;;;16.40;99.90;;;;;;5001350;28;39285;-79
2021/09/27 00:52:44;;;;;;;32.30;22.25;;;16.40;99.90;;;;;;5001628;28;37995;-80
2021/09/27 00:55:13;;;;;;;32.03;22.58;;;16.40;99.90;;;;;;4999784;28;40228;-79
2021/09/27 00:57:39;;;;;;;31.02;21.30;;;16.40;99.90;;;;;;5000728;28;38632;-79
2021/09/27 01:00:10;;;;;;;32.45;21.75;;;16.40;99.90;;;;;;5001295;28;38735;-79
2021/09/27 01:02:37;;;;;;;36.35;27.02;;;16.40;99.90;;;;;;5011518;28;47421;-79
2021/09/27 01:05:06;;;;;;;37.13;24.77;;;16.40;99.90;;;;;;5004653;28;37723;-78
2021/09/27 01:08:02;;;;;;;34.65;23.40;;;16.30;99.90;;;;;;4992035;28;46694;-80
2021/09/27 01:11:15;;;;;;;38.88;27.67;;;16.30;99.90;;;;;;4954388;28;48811;-79
2021/09/27 01:14:09;;;;;;;30.02;23.83;;;16.30;99.90;;;;;;5002710;28;47315;-80
2021/09/27 01:16:51;;;;;;;42.53;28.73;;;16.30;99.90;;;;;;4998849;28;48573;-79
2021/09/27 01:19:20;;;;;;;36.33;27.10;;;16.30;99.90;;;;;;5013750;28;39704;-79
2021/09/27 01:21:57;;;;;;;36.30;26.17;;;16.30;99.90;;;;;;5002823;28;38050;-80
2021/09/27 01:24:51;;;;;;;37.22;27.05;;;16.20;99.90;;;;;;5000322;28;38008;-80
2021/09/27 01:27:29;;;;;;;42.22;27.33;;;16.20;99.90;;;;;;4994803;28;38803;-79
2021/09/27 01:30:19;;;;;;;35.25;25.48;;;16.20;99.90;;;;;;5003015;28;38594;-79
2021/09/27 01:32:52;;;;;;;33.38;26.83;;;16.20;99.90;;;;;;5018594;28;47458;-79
2021/09/27 01:35:48;;;;;;;36.70;29.40;;;16.10;99.90;;;;;;5004323;28;37603;-79
2021/09/27 01:38:44;;;;;;;39.47;28.60;;;16.10;99.90;;;;;;4994744;28;39275;-79
2021/09/27 01:41:37;;;;;;;45.90;30.50;;;16.10;99.90;;;;;;4994567;28;39541;-80
2021/09/27 01:44:40;;;;;;;42.03;29.88;;;16.10;99.90;;;;;;4989090;28;38705;-78
2021/09/27 01:47:28;;;;;;;47.78;31.95;;;16.10;99.90;;;;;;4999215;28;37340;-78
2021/09/27 01:50:23;;;;;;;43.33;29.85;;;16.10;99.90;;;;;;5003341;28;38961;-79
2021/09/27 01:52:53;;;;;;;44.17;28.95;;;16.10;99.90;;;;;;4989075;28;48748;-79
2021/09/27 01:55:31;;;;;;;45.90;31.05;;;16.10;99.90;;;;;;4997335;28;39117;-79
2021/09/27 01:58:05;;;;;;;40.35;28.75;;;16.10;99.90;;;;;;5001375;28;37446;-79
2021/09/27 02:00:43;;;;;;;45.58;32.08;;;16.20;99.90;;;;;;4998326;28;48337;-80
2021/09/27 02:03:26;;;;;;;54.08;33.05;;;16.10;99.90;;;;;;5000691;28;38653;-79
2021/09/27 02:06:03;;;;;;;46.70;30.77;;;16.10;99.90;;;;;;4992579;28;38130;-79
2021/09/27 02:08:51;;;;;;;41.55;29.58;;;16.10;99.90;;;;;;4994041;28;47249;-79
2021/09/27 02:11:30;;;;;;;43.30;29.48;;;16.10;99.90;;;;;;4997083;28;39874;-79
2021/09/27 02:14:02;;;;;;;45.85;32.10;;;16.10;99.90;;;;;;4998813;28;38650;-79
2021/09/27 02:16:40;;;;;;;40.95;29.73;;;16.00;99.90;;;;;;5003259;28;48447;-79
2021/09/27 02:19:31;;;;;;;50.85;31.98;;;16.00;99.90;;;;;;5006538;28;37464;-79
2021/09/27 02:22:13;;;;;;;50.90;33.25;;;16.10;99.90;;;;;;5019819;28;38373;-79
2021/09/27 02:25:22;;;;;;;50.20;33.60;;;16.00;99.90;;;;;;4998558;28;47245;-79
2021/09/27 02:27:51;;;;;;;58.50;36.92;;;16.00;99.90;;;;;;5003145;28;48589;-80
2021/09/27 02:30:23;;;;;;;53.85;36.20;;;16.00;99.90;;;;;;5007807;28;37658;-79
2021/09/27 02:33:02;;;;;;;;;;;15.90;99.90;;;;;;5006182;28;39799;-79
2021/09/27 02:35:48;;;;;;;50.80;33.83;;;15.90;99.90;;;;;;5009858;28;47345;-79
2021/09/27 02:38:21;;;;;;;47.92;31.80;;;15.90;99.90;;;;;;5009723;28;39367;-79
2021/09/27 02:40:49;;;;;;;;;;;15.90;99.90;;;;;;5015116;28;36471;-79
2021/09/27 02:43:16;;;;;;;54.05;34.17;;;15.80;99.90;;;;;;5003344;28;38611;-80
2021/09/27 02:45:45;;;;;;;53.97;35.15;;;15.80;99.90;;;;;;5004978;28;38748;-80
2021/09/27 02:48:42;;;;;;;61.63;37.72;;;15.80;99.90;;;;;;5007242;28;38822;-79
2021/09/27 02:51:10;;;;;;;45.17;31.88;;;15.80;99.90;;;;;;5004711;28;37441;-79
2021/09/27 02:53:36;;;;;;;56.40;36.42;;;15.80;99.90;;;;;;5002153;28;39388;-79
2021/09/27 02:56:17;;;;;;;57.55;36.53;;;15.80;99.90;;;;;;5003076;28;38351;-79
2021/09/27 02:58:49;;;;;;;55.17;37.08;;;15.70;99.90;;;;;;5022031;28;38534;-79
2021/09/27 03:01:33;;;;;;;45.25;33.22;;;15.70;99.90;;;;;;5013871;28;38298;-80
2021/09/27 03:04:31;;;;;;;54.58;34.65;;;15.70;99.90;;;;;;5008626;28;40026;-79
2021/09/27 03:07:04;;;;;;;53.53;35.05;;;15.80;99.90;;;;;;5001563;28;48972;-79
2021/09/27 03:09:49;;;;;;;55.70;35.50;;;15.70;99.90;;;;;;5002683;28;49268;-79
2021/09/27 03:12:31;;;;;;;53.80;34.03;;;15.70;99.90;;;;;;5001475;28;37992;-80
2021/09/27 03:15:42;;;;;;;51.15;34.08;;;15.70;99.90;;;;;;5016019;28;39292;-79
2021/09/27 03:18:46;;;;;;;51.85;34.53;;;15.70;99.90;;;;;;4989135;28;48995;-79
2021/09/27 03:21:39;;;;;;;56.00;36.40;;;15.60;99.90;;;;;;4979955;28;37157;-79
2021/09/27 03:24:08;;;;;;;;;;;15.60;99.90;;;;;;5000186;28;37341;-78
2021/09/27 03:26:49;;;;;;;65.25;38.58;;;15.60;99.90;;;;;;5012888;28;39961;-79
2021/09/27 03:29:20;;;;;;;59.72;35.80;;;15.60;99.90;;;;;;4999547;28;38497;-79
2021/09/27 03:31:58;;;;;;;68.32;41.40;;;15.60;99.90;;;;;;5005809;28;39660;-79
2021/09/27 03:34:34;;;;;;;68.20;40.10;;;15.60;99.90;;;;;;5006250;28;37408;-79
2021/09/27 03:37:21;;;;;;;60.15;38.47;;;15.60;99.90;;;;;;4990410;28;39894;-79
2021/09/27 03:40:08;;;;;;;68.53;42.28;;;15.60;99.90;;;;;;4988550;28;49313;-79
2021/09/27 03:42:58;;;;;;;74.60;44.83;;;15.60;99.90;;;;;;4995756;28;47286;-79
2021/09/27 03:45:42;;;;;;;76.18;41.53;;;15.60;99.90;;;;;;5003794;28;37337;-79
2021/09/27 03:48:25;;;;;;;72.22;42.47;;;15.70;99.90;;;;;;4999570;28;38290;-79
2021/09/27 03:51:00;;;;;;;76.65;43.25;;;15.60;99.90;;;;;;4988328;28;38629;-79
2021/09/27 03:53:48;;;;;;;61.25;37.97;;;15.60;99.90;;;;;;5003735;28;46034;-79
2021/09/27 03:56:27;;;;;;;63.20;38.45;;;15.60;99.90;;;;;;4995988;28;38315;-79
2021/09/27 03:59:49;;;;;;;67.90;40.70;;;15.60;99.90;;;;;;4998825;28;38530;-79
2021/09/27 04:02:25;;;;;;;69.85;39.55;;;15.50;99.90;;;;;;4981346;28;48600;-79
2021/09/27 04:05:09;;;;;;;77.88;42.83;;;15.40;99.90;;;;;;5006139;28;38132;-79
2021/09/27 04:07:52;;;;;;;64.32;38.20;;;15.40;99.90;;;;;;4989480;28;45852;-79
2021/09/27 04:10:50;;;;;;;68.47;38.85;;;15.30;99.90;;;;;;4997267;28;40064;-79
2021/09/27 04:13:43;;;;;;;53.88;35.72;;;15.20;99.90;;;;;;5003381;28;39720;-79
2021/09/27 04:16:43;;;;;;;63.60;38.08;;;15.20;99.90;;;;;;4959015;28;39565;-78
2021/09/27 04:19:27;;;;;;;71.38;40.22;;;15.20;99.90;;;;;;4998818;28;37159;-79
2021/09/27 04:22:10;;;;;;;63.05;38.08;;;15.10;99.90;;;;;;5007135;28;38853;-78
2021/09/27 04:24:58;;;;;;;51.65;34.58;;;15.10;99.90;;;;;;5019054;28;46989;-80
2021/09/27 04:27:50;;;;;;;70.30;40.13;;;15.10;99.90;;;;;;5014994;28;38551;-79
2021/09/27 04:30:32;;;;;;;53.60;34.70;;;15.10;99.90;;;;;;5018168;28;37821;-79
2021/09/27 04:33:16;;;;;;;84.60;46.13;;;15.10;99.90;;;;;;5004679;28;38825;-79
2021/09/27 04:36:04;;;;;;;75.57;43.70;;;15.20;99.90;;;;;;4991946;28;47186;-79
2021/09/27 04:38:33;;;;;;;64.05;38.33;;;15.20;99.90;;;;;;5004124;28;48716;-79
2021/09/27 04:41:06;;;;;;;68.43;40.30;;;15.20;99.90;;;;;;5001475;28;38210;-79
2021/09/27 04:43:42;;;;;;;75.90;43.17;;;15.20;99.90;;;;;;5006337;28;48209;-78
2021/09/27 04:46:08;;;;;;;76.53;45.13;;;15.20;99.90;;;;;;5014281;28;38983;-79
2021/09/27 04:49:05;;;;;;;67.72;41.65;;;15.30;99.90;;;;;;5003445;28;37293;-78
2021/09/27 04:51:47;;;;;;;77.28;42.38;;;15.30;99.90;;;;;;4993764;28;49001;-79
2021/09/27 04:54:45;;;;;;;77.25;46.00;;;15.30;99.90;;;;;;5012431;28;39772;-79
2021/09/27 04:57:25;;;;;;;64.57;39.28;;;15.30;99.90;;;;;;5015107;28;39141;-78
2021/09/27 05:00:03;;;;;;;67.35;41.00;;;15.30;99.90;;;;;;4993053;28;39220;-79
2021/09/27 05:02:38;;;;;;;76.97;42.70;;;15.30;99.90;;;;;;5000693;28;48531;-78
2021/09/27 05:05:08;;;;;;;63.50;40.35;;;15.30;99.90;;;;;;4996491;28;39633;-78
2021/09/27 05:08:02;;;;;;;76.45;42.65;;;15.40;99.90;;;;;;4992105;28;47272;-79
2021/09/27 05:10:55;;;;;;;56.00;38.08;;;15.40;99.90;;;;;;5004344;28;47188;-78
2021/09/27 05:13:39;;;;;;;68.50;40.08;;;15.30;99.90;;;;;;5002147;28;38258;-78
2021/09/27 05:16:14;;;;;;;75.00;41.50;;;15.30;99.90;;;;;;4996045;28;39961;-78
2021/09/27 05:19:15;;;;;;;58.60;37.00;;;15.30;99.90;;;;;;4999317;28;37677;-79
2021/09/27 05:22:11;;;;;;;56.17;34.92;;;15.30;99.90;;;;;;4992680;28;47637;-79
2021/09/27 05:24:58;;;;;;;52.90;35.53;;;15.30;99.90;;;;;;5007442;28;47325;-79
2021/09/27 05:27:24;;;;;;;60.47;37.17;;;15.30;99.90;;;;;;4994158;28;39509;-78
2021/09/27 05:30:20;;;;;;;66.43;38.80;;;15.30;99.90;;;;;;4994099;28;38689;-78
2021/09/27 05:33:09;;;;;;;58.35;36.65;;;15.30;99.90;;;;;;4987070;28;49035;-78
2021/09/27 05:35:46;;;;;;;51.08;32.83;;;15.30;99.90;;;;;;5001246;28;48772;-78
2021/09/27 05:38:25;;;;;;;58.13;34.28;;;15.30;99.90;;;;;;4998384;28;38760;-78
2021/09/27 05:40:54;;;;;;;48.13;33.35;;;15.40;99.90;;;;;;4995788;28;38472;-78
2021/09/27 05:43:41;;;;;;;57.70;35.33;;;15.40;99.90;;;;;;4994947;28;38059;-78
2021/09/27 05:46:30;;;;;;;67.20;37.70;;;15.40;99.90;;;;;;4993938;28;37825;-78
2021/09/27 05:49:40;;;;;;;55.92;33.28;;;15.40;99.90;;;;;;5006736;28;39846;-79
2021/09/27 05:52:16;;;;;;;47.08;32.03;;;15.40;99.90;;;;;;4967847;28;47530;-79
2021/09/27 05:55:15;;;;;;;46.03;31.13;;;15.50;99.90;;;;;;5002108;28;39310;-80
2021/09/27 05:57:56;;;;;;;41.38;30.15;;;15.50;99.90;;;;;;4980709;28;47320;-81
2021/09/27 06:00:37;;;;;;;45.80;29.77;;;15.60;99.90;;;;;;4995714;28;39466;-80
2021/09/27 06:03:30;;;;;;;49.67;31.60;;;15.60;99.90;;;;;;5000578;28;38913;-80
2021/09/27 06:06:00;;;;;;;44.30;29.55;;;15.70;99.90;;;;;;4996982;28;38144;-80
2021/09/27 06:08:43;;;;;;;41.85;29.23;;;15.70;99.90;;;;;;5005338;28;46663;-80
2021/09/27 06:11:28;;;;;;;37.15;26.02;;;15.80;99.90;;;;;;5002531;28;38714;-80
2021/09/27 06:13:56;;;;;;;35.00;25.70;;;15.80;99.90;;;;;;5000295;28;39327;-80
2021/09/27 06:16:47;;;;;;;36.97;25.98;;;15.90;99.90;;;;;;5002966;28;38846;-79
2021/09/27 06:19:38;;;;;;;35.05;25.00;;;15.90;99.90;;;;;;5001532;28;37400;-79
2021/09/27 06:22:12;;;;;;;35.00;24.52;;;16.00;99.90;;;;;;5002541;28;38964;-79
2021/09/27 06:25:05;;;;;;;32.38;23.27;;;16.00;99.90;;;;;;4999863;28;39385;-79
2021/09/27 06:27:37;;;;;;;;;;;16.00;99.90;;;;;;4989116;28;47284;-79
2021/09/27 06:30:36;;;;;;;33.53;22.53;;;16.10;99.90;;;;;;4992997;28;39846;-79
2021/09/27 06:33:17;;;;;;;35.63;24.10;;;16.10;99.90;;;;;;4986386;28;47100;-78
2021/09/27 06:35:46;;;;;;;32.70;24.20;;;16.10;99.90;;;;;;4995624;28;38566;-80
2021/09/27 06:38:14;;;;;;;32.83;23.98;;;16.20;99.90;;;;;;4991091;28;37284;-78
2021/09/27 06:40:44;;;;;;;28.33;23.13;;;16.20;99.90;;;;;;4994765;28;38106;-79
2021/09/27 06:43:14;;;;;;;33.40;24.38;;;16.20;99.90;;;;;;4989647;28;39429;-79
2021/09/27 06:45:40;;;;;;;35.45;25.05;;;16.30;99.90;;;;;;5013176;28;40406;-79
2021/09/27 06:48:07;;;;;;;29.63;23.00;;;16.30;99.90;;;;;;5001142;28;36804;-79
2021/09/27 06:50:33;;;;;;;31.92;21.95;;;16.30;99.90;;;;;;5000985;28;38850;-79
2021/09/27 06:52:59;;;;;;;30.05;22.90;;;16.40;99.90;;;;;;5002899;28;38927;-79
2021/09/27 06:55:26;;;;;;;30.08;23.75;;;16.40;99.90;;;;;;5001417;28;39250;-79
2021/09/27 06:57:52;;;;;;;34.25;23.38;;;16.40;99.90;;;;;;5003163;28;39548;-79
2021/09/27 07:00:19;;;;;;;28.65;21.85;;;16.40;99.90;;;;;;5004607;28;37967;-79
2021/09/27 07:02:45;;;;;;;30.48;21.52;;;16.40;99.90;;;;;;5008183;28;39341;-80
2021/09/27 07:05:12;;;;;;;28.85;23.15;;;16.40;99.90;;;;;;5001615;28;38484;-79
2021/09/27 07:07:39;;;;;;;31.58;24.67;;;16.50;99.90;;;;;;5004569;28;38816;-77
2021/09/27 07:10:09;;;;;;;31.67;24.40;;;16.50;99.90;;;;;;5001636;28;37231;-78
2021/09/27 07:12:35;;;;;;;38.53;28.77;;;16.50;99.90;;;;;;4996230;28;39704;-79
2021/09/27 07:15:02;;;;;;;35.13;29.95;;;16.60;99.90;;;;;;5004779;28;39380;-78
2021/09/27 07:17:28;;;;;;;37.13;30.02;;;16.60;99.90;;;;;;5002333;28;47716;-80
2021/09/27 07:19:54;;;;;;;41.03;31.50;;;16.70;99.90;;;;;;5001986;28;37952;-79
2021/09/27 07:22:20;;;;;;;44.40;34.85;;;16.70;99.90;;;;;;5007440;28;38683;-79
2021/09/27 07:24:46;;;;;;;43.10;33.38;;;16.70;99.90;;;;;;5009239;28;38520;-79
2021/09/27 07:27:12;;;;;;;48.50;36.53;;;16.80;99.90;;;;;;5022265;28;37548;-79
2021/09/27 07:29:38;;;;;;;53.38;39.72;;;16.80;99.90;;;;;;5009492;28;37311;-79
2021/09/27 07:32:05;;;;;;;53.55;39.55;;;16.80;99.90;;;;;;5006465;28;39182;-79
2021/09/27 07:34:31;;;;;;;54.53;39.65;;;16.90;99.90;;;;;;4996802;28;39057;-79
2021/09/27 07:36:58;;;;;;;54.10;37.80;;;16.90;99.90;;;;;;4988556;28;38216;-79
2021/09/27 07:39:24;;;;;;;56.03;38.75;;;16.90;99.90;;;;;;5005820;28;37965;-79
2021/09/27 07:41:51;;;;;;;60.00;41.08;;;16.90;99.90;;;;;;5011976;28;39612;-79
2021/09/27 07:44:17;;;;;;;56.20;39.17;;;17.00;99.90;;;;;;5009712;28;40202;-79
2021/09/27 07:46:43;;;;;;;55.25;37.45;;;17.00;99.90;;;;;;5007754;28;38899;-79
2021/09/27 07:49:11;;;;;;;49.08;36.22;;;17.10;99.90;;;;;;5015020;28;37573;-79
2021/09/27 07:51:38;;;;;;;57.35;38.97;;;17.10;99.90;;;;;;5006172;28;39661;-79
2021/09/27 07:54:05;;;;;;;50.40;38.70;;;17.10;99.90;;;;;;5006010;28;38320;-79
2021/09/27 07:56:31;;;;;;;54.85;39.65;;;17.20;99.90;;;;;;5005064;28;38621;-79
2021/09/27 07:58:57;;;;;;;51.38;38.88;;;17.20;99.90;;;;;;5005986;28;38908;-79
2021/09/27 08:01:23;;;;;;;53.28;39.25;;;17.30;99.90;;;;;;5007853;28;39193;-79
2021/09/27 08:03:49;;;;;;;52.22;36.92;;;17.30;99.90;;;;;;5006226;28;39563;-80
2021/09/27 08:06:15;;;;;;;47.03;35.72;;;17.30;99.90;;;;;;5005525;28;39722;-79
2021/09/27 08:08:42;;;;;;;49.67;37.58;;;17.30;99.90;;;;;;5006195;28;38319;-79
2021/09/27 08:11:08;;;;;;;47.45;35.22;;;17.40;99.90;;;;;;5005687;28;38420;-79
2021/09/27 08:13:34;;;;;;;43.92;34.58;;;17.40;99.90;;;;;;5007247;28;38870;-80
2021/09/27 08:16:00;;;;;;;45.95;34.67;;;17.50;99.90;;;;;;5007633;28;38239;-79
2021/09/27 08:18:27;;;;;;;44.25;33.50;;;17.50;99.90;;;;;;4994184;28;46809;-79
2021/09/27 08:21:00;;;;;;;34.38;30.10;;;17.70;99.90;;;;;;4985698;28;38656;-79
2021/09/27 08:23:26;;;;;;;36.70;30.15;;;17.70;99.90;;;;;;4981674;28;39438;-79
2021/09/27 08:25:53;;;;;;;35.03;28.80;;;17.80;99.90;;;;;;4996895;28;38926;-79
2021/09/27 08:28:22;;;;;;;31.50;27.27;;;17.90;99.90;;;;;;5006006;28;37490;-79
2021/09/27 08:30:52;;;;;;;34.28;27.90;;;17.90;99.90;;;;;;5001009;28;39670;-79
2021/09/27 08:33:19;;;;;;;34.20;26.52;;;17.90;99.90;;;;;;4987009;28;38797;-79
2021/09/27 08:35:48;;;;;;;30.35;25.90;;;17.90;99.90;;;;;;4997813;28;39013;-79
2021/09/27 08:38:15;;;;;;;30.63;24.92;;;18.00;99.90;;;;;;5007201;28;37477;-79
2021/09/27 08:40:58;;;;;;;28.38;22.45;;;18.10;99.90;;;;;;5016820;28;38734;-80
2021/09/27 08:43:27;;;;;;;29.27;22.85;;;18.20;99.90;;;;;;5015698;28;38545;-79
2021/09/27 08:46:01;;;;;;;24.25;21.70;;;18.30;99.90;;;;;;5003819;28;38607;-80
2021/09/27 08:48:34;;;;;;;25.13;18.88;;;18.30;99.90;;;;;;5022381;28;47084;-79
2021/09/27 08:51:00;;;;;;;23.10;18.63;;;18.20;99.90;;;;;;5005314;28;40179;-80
2021/09/27 08:53:36;;;;;;;21.65;17.02;;;18.30;99.90;;;;;;5004769;28;38977;-79
2021/09/27 08:56:36;;;;;;;19.38;15.63;;;18.30;99.90;;;;;;5005815;28;38784;-79
2021/09/27 08:59:10;;;;;;;20.75;16.00;;;18.30;99.90;;;;;;4985571;28;36796;-80
2021/09/27 09:01:46;;;;;;;18.40;14.85;;;18.40;99.90;;;;;;5003985;28;46879;-80
2021/09/27 09:04:20;;;;;;;19.05;15.13;;;18.40;99.90;;;;;;5025791;28;38125;-79
2021/09/27 09:06:52;;;;;;;18.98;14.15;;;18.40;99.90;;;;;;4997284;28;39045;-79
2021/09/27 09:09:28;;;;;;;18.52;13.77;;;18.40;99.90;;;;;;5016670;28;39691;-79
2021/09/27 09:12:01;;;;;;;19.08;12.77;;;18.50;99.90;;;;;;5004136;28;39358;-79
2021/09/27 09:14:59;;;;;;;15.82;13.02;;;18.50;99.90;;;;;;5024594;28;47084;-79
2021/09/27 09:17:39;;;;;;;14.30;12.15;;;18.60;99.90;;;;;;5007797;28;39119;-79
2021/09/27 09:20:20;;;;;;;13.93;11.63;;;18.70;99.90;;;;;;5003017;28;38891;-79
2021/09/27 09:22:48;;;;;;;13.05;11.23;;;18.70;99.90;;;;;;5019344;28;41318;-79
2021/09/27 09:25:25;;;;;;;12.73;10.10;;;18.80;99.90;;;;;;4990849;28;38591;-79
2021/09/27 09:27:52;;;;;;;16.10;11.10;;;18.80;99.90;;;;;;4998506;28;39312;-79
2021/09/27 09:30:20;;;;;;;12.45;9.80;;;18.80;99.90;;;;;;4985788;28;38564;-79
2021/09/27 09:32:51;;;;;;;16.55;10.55;;;18.90;99.90;;;;;;4987071;28;38921;-79
2021/09/27 09:35:23;;;;;;;12.30;8.77;;;19.00;99.90;;;;;;4985059;28;38625;-79
2021/09/27 09:37:54;;;;;;;15.40;8.82;;;19.00;99.90;;;;;;4984633;28;38385;-79
2021/09/27 09:40:51;;;;;;;11.48;7.35;;;19.00;99.90;;;;;;5015272;28;37395;-79
2021/09/27 09:43:28;;;;;;;7.93;5.43;;;19.10;99.90;;;;;;4998439;28;39262;-80
2021/09/27 09:46:27;;;;;;;9.23;5.50;;;19.20;99.90;;;;;;5005733;28;39803;-79
2021/09/27 09:49:10;;;;;;;8.27;5.00;;;19.20;99.90;;;;;;5011793;28;48759;-81
2021/09/27 09:51:44;;;;;;;5.70;3.90;;;19.20;99.90;;;;;;4993585;28;48578;-81
2021/09/27 09:54:25;;;;;;;9.15;5.15;;;19.20;99.90;;;;;;4984191;28;40031;-80
2021/09/27 09:56:57;;;;;;;6.75;4.25;;;19.10;99.90;;;;;;4986423;28;38358;-80
2021/09/27 09:59:23;;;;;;;;;;;19.10;99.90;;;;;;5000643;28;36940;-80
2021/09/27 10:01:53;;;;;;;8.90;4.40;;;19.20;99.90;;;;;;5002637;28;37684;-81
2021/09/27 10:04:37;;;;;;;5.55;3.85;;;19.30;99.90;;;;;;5000519;28;39890;-80
2021/09/27 10:07:16;;;;;;;5.90;3.90;;;19.40;99.90;;;;;;4989193;28;40095;-79
2021/09/27 10:09:51;;;;;;;6.82;4.75;;;19.40;99.90;;;;;;4999309;28;38520;-80
2021/09/27 10:12:39;;;;;;;8.52;3.92;;;19.50;99.90;;;;;;5010175;28;39202;-80
2021/09/27 10:15:06;;;;;;;7.03;4.00;;;19.50;99.90;;;;;;4994147;28;38805;-79
2021/09/27 10:17:38;;;;;;;6.03;3.80;;;19.50;99.90;;;;;;5003437;28;38966;-81
2021/09/27 10:20:12;;;;;;;6.88;4.15;;;19.50;99.90;;;;;;5004202;28;38143;-78
2021/09/27 10:22:51;;;;;;;7.68;3.75;;;19.40;99.90;;;;;;4999986;28;39124;-80
2021/09/27 10:25:29;;;;;;;5.45;3.35;;;19.50;99.90;;;;;;5000661;28;38455;-80
2021/09/27 10:27:58;;;;;;;4.18;3.17;;;19.50;99.90;;;;;;4997498;28;38570;-80
2021/09/27 10:30:58;;;;;;;5.57;3.08;;;19.50;99.90;;;;;;4999894;28;36894;-80
2021/09/27 10:33:33;;;;;;;8.15;3.65;;;19.60;99.90;;;;;;5020073;28;38123;-80
2021/09/27 10:36:04;;;;;;;5.68;2.95;;;19.80;99.90;;;;;;4998924;28;38173;-80
2021/09/27 10:38:40;;;;;;;6.75;2.40;;;19.90;99.90;;;;;;5007074;28;48435;-80
2021/09/27 10:41:12;;;;;;;5.40;2.80;;;20.00;99.90;;;;;;5003989;28;37658;-80
2021/09/27 10:43:39;;;;;;;6.43;3.00;;;20.00;99.90;;;;;;5021679;28;37191;-80
2021/09/27 10:46:06;;;;;;;5.15;2.97;;;20.00;99.90;;;;;;5004813;28;38683;-81
2021/09/27 10:48:33;;;;;;;9.80;3.25;;;19.90;99.90;;;;;;5008109;28;39348;-80
2021/09/27 10:51:08;;;;;;;4.07;2.95;;;20.00;99.90;;;;;;5007886;28;39959;-80
2021/09/27 10:54:15;;;;;;;7.70;2.80;;;20.00;99.90;;;;;;4995304;28;49053;-80
2021/09/27 10:56:49;;;;;;;5.05;2.90;;;20.20;99.90;;;;;;4985472;28;47132;-80
2021/09/27 10:59:30;;;;;;;3.28;2.67;;;20.30;99.90;;;;;;5004063;28;39903;-80
2021/09/27 11:02:06;;;;;;;6.43;3.22;;;20.10;99.90;;;;;;5018525;28;38427;-80
2021/09/27 11:04:46;;;;;;;4.47;2.75;;;20.20;99.90;;;;;;4997595;28;47241;-80
2021/09/27 11:07:42;;;;;;;7.20;3.22;;;20.10;99.90;;;;;;5002865;28;40650;-81
2021/09/27 11:10:37;;;;;;;5.78;3.10;;;20.00;99.90;;;;;;4994305;28;39338;-80
2021/09/27 11:13:05;;;;;;;9.20;3.40;;;19.90;99.90;;;;;;5009970;28;38747;-80
2021/09/27 11:15:41;;;;;;;5.63;3.15;;;19.90;99.90;;;;;;5001785;28;38600;-80
2021/09/27 11:18:28;;;;;;;6.90;3.90;;;19.90;99.90;;;;;;5001102;28;39981;-81
2021/09/27 11:20:54;;;;;;;10.23;3.40;;;19.80;99.90;;;;;;5008888;28;38333;-80
2021/09/27 11:23:22;;;;;;;9.50;3.45;;;19.70;99.90;;;;;;5004472;28;38683;-81
2021/09/27 11:26:23;;;;;;;6.47;3.45;;;19.70;99.90;;;;;;5007500;28;38975;-83
2021/09/27 11:28:51;;;;;;;7.03;3.65;;;19.60;99.90;;;;;;5021925;28;46880;-81
2021/09/27 11:31:32;;;;;;;8.25;3.65;;;19.50;99.90;;;;;;5008737;28;39436;-81
2021/09/27 11:34:09;;;;;;;9.30;4.57;;;19.30;99.90;;;;;;5006123;28;39117;-80
2021/09/27 11:36:47;;;;;;;5.15;3.38;;;19.20;99.90;;;;;;5008569;28;49077;-81
2021/09/27 11:39:15;;;;;;;7.45;3.08;;;19.20;99.90;;;;;;5011323;28;38600;-82
2021/09/27 11:42:02;;;;;;;7.07;3.92;;;19.20;99.90;;;;;;5014625;28;38764;-81
2021/09/27 11:44:32;;;;;;;4.68;3.03;;;19.20;99.90;;;;;;5009357;28;47178;-82
2021/09/27 11:47:04;;;;;;;6.32;3.22;;;19.20;99.90;;;;;;5004888;28;37033;-81
2021/09/27 11:49:58;;;;;;;;;;;19.20;99.90;;;;;;5009775;28;47252;-82
2021/09/27 11:52:44;;;;;;;10.00;3.38;;;19.30;99.90;;;;;;5008877;28;37218;-81
2021/09/27 11:55:32;;;;;;;8.90;3.88;;;19.30;99.90;;;;;;5018737;28;37879;-82
2021/09/27 11:58:16;;;;;;;7.07;3.15;;;19.30;99.90;;;;;;5012215;28;37585;-82
2021/09/27 12:00:48;;;;;;;7.30;3.47;;;19.20;99.90;;;;;;5012163;28;48598;-82
2021/09/27 12:03:49;;;;;;;11.73;4.10;;;19.10;99.90;;;;;;5009786;28;38294;-81
2021/09/27 12:06:24;;;;;;;7.07;4.72;;;18.90;99.90;;;;;;4997974;28;39111;-80
2021/09/27 12:08:53;;;;;;;9.05;4.35;;;18.70;99.90;;;;;;5005874;28;37222;-82
2021/09/27 12:11:20;;;;;;;10.93;5.25;;;18.60;99.90;;;;;;5006988;28;38869;-81
2021/09/27 12:13:51;;;;;;;9.73;5.50;;;18.50;99.90;;;;;;4998764;28;36981;-80
2021/09/27 12:16:37;;;;;;;9.00;7.10;;;18.20;99.90;;;;;;5001919;28;38033;-80
2021/09/27 12:19:15;;;;;;;11.20;7.00;;;18.00;99.90;;;;;;5005596;28;37579;-81
2021/09/27 12:21:46;;;;;;;8.50;6.47;;;17.90;99.90;;;;;;5002747;28;39058;-80
2021/09/27 12:24:19;;;;;;;11.00;5.53;;;17.80;99.90;;;;;;5006647;28;38371;-80
2021/09/27 12:26:54;;;;;;;13.63;5.35;;;17.70;99.90;;;;;;5007268;28;38023;-80
2021/09/27 12:29:23;;;;;;;11.20;5.30;;;17.70;99.90;;;;;;5008429;28;37853;-80
2021/09/27 12:31:59;;;;;;;8.80;5.15;;;17.60;99.90;;;;;;5003424;28;40086;-80
2021/09/27 12:34:31;;;;;;;7.35;4.22;;;17.50;99.90;;;;;;5005656;28;39673;-80
2021/09/27 12:36:58;;;;;;;8.07;4.70;;;17.50;99.90;;;;;;5007433;28;38029;-80
2021/09/27 12:39:28;;;;;;;6.80;4.50;;;17.40;99.90;;;;;;5012212;28;38264;-80
2021/09/27 12:41:57;;;;;;;4.07;3.58;;;17.40;99.90;;;;;;5018402;28;40894;-80
2021/09/27 12:44:38;;;;;;;6.20;3.97;;;17.40;99.90;;;;;;5018390;28;39027;-80
2021/09/27 12:47:07;;;;;;;6.28;3.42;;;17.30;99.90;;;;;;5025608;28;38192;-80
2021/09/27 12:49:51;;;;;;;7.90;3.72;;;17.30;99.90;;;;;;5027024;28;37810;-80
2021/09/27 12:52:31;;;;;;;4.82;3.53;;;17.30;99.90;;;;;;5005623;28;39394;-80
2021/09/27 12:54:58;;;;;;;7.90;3.40;;;17.30;99.90;;;;;;5003802;28;39508;-78
2021/09/27 12:57:28;;;;;;;6.43;3.97;;;17.30;99.90;;;;;;4983823;28;39105;-78
2021/09/27 12:59:57;;;;;;;6.70;3.72;;;17.30;99.90;;;;;;4990234;28;37082;-78
2021/09/27 13:02:35;;;;;;;8.68;3.65;;;17.30;99.90;;;;;;5007286;28;39102;-79
2021/09/27 13:05:10;;;;;;;6.80;3.60;;;17.40;99.90;;;;;;5006996;28;38427;-79
2021/09/27 13:07:43;;;;;;;6.50;3.75;;;17.20;99.90;;;;;;5008438;28;47209;-80
2021/09/27 13:10:22;;;;;;;7.82;4.05;;;17.30;99.90;;;;;;5002740;28;37851;-80
2021/09/27 13:13:14;;;;;;;6.53;4.35;;;17.30;99.90;;;;;;5010949;28;39092;-80
2021/09/27 13:15:51;;;;;;;7.60;3.63;;;17.30;99.90;;;;;;5016011;28;49389;-80
2021/09/27 13:18:32;;;;;;;3.13;2.75;;;17.20;99.90;;;;;;4995823;28;38398;-78
2021/09/27 13:21:11;;;;;;;4.70;2.90;;;17.20;99.90;;;;;;5005298;28;38131;-80
2021/09/27 13:23:49;;;;;;;3.85;2.50;;;17.20;99.90;;;;;;5002498;28;48262;-80